Data

From:  To:  PST   UTC
Description Unit Station From To Min. Max. Avg.
Water Temperature at Buoy °C Buoy 2024-05-16 04:09 2024-05-18 21:26 7.67 15.58 10.08
Weather: Air Temperature at Buoy °C Buoy 2024-05-16 04:17 2024-05-19 04:02 8.41 16.85 12.24
Wind Speed at Buoy m/s Buoy 2024-05-16 04:17 2024-05-19 04:02 0 10.58 4.26
Wind Direction at Buoy Deg. Buoy 2024-05-16 04:17 2024-05-19 04:02 65.21 280.3 191.87
Weather: Air Pressure at Buoy mb Buoy 2024-05-16 04:17 2024-05-19 04:02 1011.83 1021.11 1017.41
Weather: Relative Humidity at Buoy % Buoy 2024-05-16 04:17 2024-05-19 04:02 34.75 100 65.79
Weather: Solar Radiation at Buoy W/m² Buoy 2024-05-16 04:17 2024-05-19 04:02 0 1170 140.72
Flow at Cedar River ft³/s Cedar River 2024-05-16 04:15 2024-05-19 04:00 299 331 314.03
Water Temperature at Cedar River °C Cedar River 2024-05-16 04:15 2024-05-19 04:00 10.6 15.2 12.16
Stage at 37A ft 37A 2024-05-16 05:00 2024-05-19 04:00 1.43 1.54 1.45
Flow at 37A ft³/s 37A 2024-05-16 05:00 2024-05-19 04:00 6.9 9.79 7.4
Flow at Sammish River ft³/s Sammamish River-51T 2024-05-16 05:00 2024-05-19 04:00 155.88 169.19 160.62
Water Temperature at Sammish River °C Sammamish River-51T 2024-05-16 05:00 2024-05-19 04:00 13.8 14.99 14.34
Stage at 34A ft 34a 2024-05-16 05:00 2024-05-19 04:00 0.95 1.02 0.98
Flow at 34A ft³/s 34a 2024-05-16 05:00 2024-05-19 04:00 1.78 2.38 2
Water Temperature at 34A °C 34a 2024-05-16 05:00 2024-05-19 04:00 11.56 13.11 12.17
Stage at 35C ft 35C 2024-05-16 05:00 2024-05-19 04:00 2.96 2.99 2.97
Flow at 35C ft³/s 35C 2024-05-16 05:00 2024-05-19 04:00 6.49 7.62 7
Water Temperature at 35C °C 35C 2024-05-16 05:00 2024-05-19 04:00 11.86 15.01 13.04
Stage at COB-06C ft COB-06C 2024-05-16 05:00 2024-05-19 04:00 0.46 0.62 0.48
Flow at COB-06C ft³/s COB-06C 2024-05-16 05:00 2024-05-19 04:00 3.4 7.45 3.92
Stage at 27A ft 27a 2024-05-16 05:00 2024-05-19 04:00 3.1 3.17 3.14
Flow at 27A ft³/s 27a 2024-05-16 05:00 2024-05-19 04:00 1 1.78 1.43
Water Temperature at 27A °C 27a 2024-05-16 05:00 2024-05-19 04:00 11.69 14.36 12.66
Weather: Air Temperature at 27A °C 27a 2024-05-16 05:00 2024-05-19 04:00 8.13 16.01 12.01
Stage at 58A ft 58a 2024-05-16 05:00 2024-05-19 04:00 1.39 1.61 1.43
Flow at 58A ft³/s 58a 2024-05-16 05:00 2024-05-19 04:00 4.49 9.67 5.26
Water Temperature at 58A °C 58a 2024-05-16 05:00 2024-05-19 04:00 12.55 15.96 13.91
Weather: Air Temperature at 58A °C 58a 2024-05-16 05:00 2024-05-19 04:00 10.61 19.59 14.46
Stage at Lock ft Lock 2024-05-16 05:00 2024-05-19 03:00 21.81 21.99 21.9
Wind Speed at Tacoma m/s Tacoma Airport 2024-05-16 04:17 2024-05-19 04:02 0 10.58 4.26
Wind Direction at Tacoma Deg. Tacoma Airport 2024-05-16 04:17 2024-05-19 04:02 65.21 280.3 191.87
Red lines represent missing data